createdAt,value
2017-05-20T00:02:06.805Z,60.60
2017-05-20T00:04:33.953Z,58.90
2017-05-20T00:07:01.252Z,60.10
2017-05-20T00:09:28.378Z,60.00
2017-05-20T00:11:55.449Z,60.10
2017-05-20T00:14:22.572Z,59.80
2017-05-20T00:16:49.725Z,59.70
2017-05-20T00:19:16.061Z,59.70
2017-05-20T00:21:43.153Z,60.10
2017-05-20T00:24:10.287Z,60.20
2017-05-20T00:26:37.514Z,60.00
2017-05-20T00:29:05.320Z,60.10
2017-05-20T00:31:32.436Z,60.20
2017-05-20T00:33:59.525Z,60.80
2017-05-20T00:36:26.619Z,60.20
2017-05-20T00:38:53.715Z,59.30
2017-05-20T00:41:20.789Z,59.40
2017-05-20T00:43:47.890Z,59.50
2017-05-20T00:46:14.972Z,59.20
2017-05-20T00:48:42.062Z,59.80
2017-05-20T00:51:09.143Z,59.80
2017-05-20T00:53:36.241Z,59.70
2017-05-20T00:56:03.368Z,59.60
2017-05-20T00:58:30.493Z,59.60
2017-05-20T01:00:57.620Z,60.10
2017-05-20T01:03:24.783Z,59.60
2017-05-20T01:05:51.850Z,60.40
2017-05-20T01:08:18.945Z,60.00
2017-05-20T01:10:46.078Z,60.40
2017-05-20T01:13:13.174Z,60.20
2017-05-20T01:15:40.349Z,60.10
2017-05-20T01:18:07.463Z,60.20
2017-05-20T01:20:34.577Z,59.30
2017-05-20T01:23:01.718Z,59.80
2017-05-20T01:25:28.874Z,59.60
2017-05-20T01:27:57.429Z,59.40
2017-05-20T01:30:24.543Z,60.80
2017-05-20T01:32:51.641Z,60.10
2017-05-20T01:35:18.712Z,59.80
2017-05-20T01:37:45.841Z,59.90
2017-05-20T01:40:12.921Z,59.60
2017-05-20T01:42:39.994Z,60.10
2017-05-20T01:45:07.205Z,60.50
2017-05-20T01:47:34.321Z,59.70
2017-05-20T01:50:01.412Z,59.70
2017-05-20T01:52:28.522Z,59.40
2017-05-20T01:54:55.651Z,60.10
2017-05-20T01:57:23.089Z,59.10
2017-05-20T01:59:50.192Z,59.60
2017-05-20T02:02:17.368Z,59.80
2017-05-20T02:04:44.443Z,60.60
2017-05-20T02:07:11.552Z,59.80
2017-05-20T02:09:38.696Z,59.80
2017-05-20T02:12:05.769Z,59.80
2017-05-20T02:14:32.968Z,59.40
2017-05-20T02:17:00.062Z,58.90
2017-05-20T02:19:27.159Z,59.70
2017-05-20T02:21:54.254Z,58.40
2017-05-20T02:24:21.371Z,59.90
2017-05-20T02:26:48.461Z,59.50
2017-05-20T02:29:15.576Z,59.50
2017-05-20T02:31:42.686Z,60.50
2017-05-20T02:34:09.801Z,59.70
2017-05-20T02:36:36.906Z,60.90
2017-05-20T02:39:04.037Z,59.50
2017-05-20T02:41:31.194Z,60.10
2017-05-20T02:43:58.269Z,61.00
2017-05-20T02:46:25.364Z,60.10
2017-05-20T02:48:53.123Z,60.60
2017-05-20T02:51:20.256Z,60.20
2017-05-20T02:53:47.352Z,60.30
2017-05-20T02:56:14.513Z,59.70
2017-05-20T02:58:41.615Z,60.20
2017-05-20T03:01:08.733Z,59.90
2017-05-20T03:03:45.867Z,61.50
2017-05-20T03:06:13.000Z,59.80
2017-05-20T03:08:40.086Z,60.70
2017-05-20T03:11:07.173Z,61.70
2017-05-20T03:13:34.281Z,60.60
2017-05-20T03:16:01.389Z,60.90
2017-05-20T03:18:28.481Z,60.60
2017-05-20T03:20:55.640Z,60.80
2017-05-20T03:23:22.852Z,60.50
2017-05-20T03:25:50.001Z,60.50
2017-05-20T03:28:17.189Z,60.10
2017-05-20T03:30:44.285Z,59.90
2017-05-20T03:33:11.473Z,60.90
2017-05-20T03:35:38.591Z,61.20
2017-05-20T03:38:05.652Z,60.90
2017-05-20T03:40:32.729Z,60.70
2017-05-20T03:42:59.817Z,60.60
2017-05-20T03:45:26.886Z,61.30
2017-05-20T03:47:53.974Z,61.60
2017-05-20T03:50:21.058Z,60.20
2017-05-20T03:52:48.137Z,60.80
2017-05-20T03:55:15.241Z,60.10
2017-05-20T03:57:42.329Z,60.20
2017-05-20T04:00:09.516Z,60.30
2017-05-20T04:02:36.585Z,60.20
2017-05-20T04:05:03.656Z,60.20
2017-05-20T04:07:30.745Z,59.70
2017-05-20T04:09:57.852Z,60.60
2017-05-20T04:12:24.941Z,60.60
2017-05-20T04:14:52.016Z,60.90
2017-05-20T04:17:19.177Z,60.30
2017-05-20T04:19:46.249Z,60.90
2017-05-20T04:22:13.312Z,61.10
2017-05-20T04:24:40.376Z,62.60
2017-05-20T04:27:07.453Z,61.20
2017-05-20T04:29:34.520Z,60.90
2017-05-20T04:32:01.610Z,61.10
2017-05-20T04:34:28.778Z,60.30
2017-05-20T04:36:55.849Z,60.10
2017-05-20T04:39:22.906Z,60.30
2017-05-20T04:41:50.040Z,60.30
2017-05-20T04:44:17.373Z,60.20
2017-05-20T04:46:44.470Z,61.00
2017-05-20T04:49:11.740Z,59.90
2017-05-20T04:51:39.109Z,60.50
2017-05-20T04:54:06.954Z,61.00
2017-05-20T04:56:34.276Z,60.40
2017-05-20T04:59:01.589Z,61.10
2017-05-20T05:01:28.884Z,60.90
2017-05-20T05:03:56.228Z,60.50
2017-05-20T05:06:23.541Z,60.70
2017-05-20T05:08:50.900Z,61.50
2017-05-20T05:11:18.484Z,61.40
2017-05-20T05:13:45.837Z,61.30
2017-05-20T05:16:13.164Z,60.60
2017-05-20T05:18:40.465Z,60.60
2017-05-20T05:21:07.697Z,61.40
2017-05-20T05:23:34.233Z,61.40
2017-05-20T05:26:01.548Z,61.00
2017-05-20T05:28:28.875Z,60.30
2017-05-20T05:30:56.173Z,59.20
2017-05-20T05:33:23.508Z,59.60
2017-05-20T05:35:50.823Z,60.50
2017-05-20T05:38:18.154Z,59.90
2017-05-20T05:40:45.552Z,60.40
2017-05-20T05:43:12.831Z,58.40
2017-05-20T05:45:40.222Z,59.60
2017-05-20T05:48:07.560Z,59.60
2017-05-20T05:50:34.908Z,58.90
2017-05-20T05:53:02.237Z,59.50
2017-05-20T05:55:29.569Z,59.10
2017-05-20T05:57:57.329Z,59.20
2017-05-20T06:00:24.941Z,57.80
2017-05-20T06:02:52.198Z,58.10
2017-05-20T06:05:19.530Z,57.70
2017-05-20T06:07:46.905Z,58.60
2017-05-20T06:10:14.213Z,56.60
2017-05-20T06:12:41.660Z,57.20
2017-05-20T06:15:09.109Z,58.10
2017-05-20T06:17:36.436Z,57.20
2017-05-20T06:20:06.081Z,57.60
2017-05-20T06:22:33.236Z,58.70
2017-05-20T06:25:00.336Z,56.40
2017-05-20T06:27:27.501Z,56.50
2017-05-20T06:29:54.841Z,56.80
2017-05-20T06:32:22.153Z,58.00
2017-05-20T06:34:49.573Z,56.70
2017-05-20T06:37:17.073Z,57.50
2017-05-20T06:39:44.290Z,56.30
2017-05-20T06:42:11.772Z,54.00
2017-05-20T06:44:39.131Z,55.50
2017-05-20T06:47:06.617Z,55.40
2017-05-20T06:49:34.181Z,54.00
2017-05-20T06:52:01.530Z,54.50
2017-05-20T06:54:28.989Z,54.70
2017-05-20T06:56:56.077Z,53.10
2017-05-20T06:59:23.409Z,53.10
2017-05-20T07:01:50.784Z,54.70
2017-05-20T07:04:18.042Z,53.70
2017-05-20T07:06:45.393Z,51.80
2017-05-20T07:09:12.708Z,51.80
2017-05-20T07:11:40.022Z,52.50
2017-05-20T07:14:07.269Z,50.70
2017-05-20T07:16:34.641Z,51.80
2017-05-20T07:19:01.964Z,50.80
2017-05-20T07:21:29.291Z,51.70
2017-05-20T07:23:56.710Z,50.90
2017-05-20T07:26:24.037Z,50.20
2017-05-20T07:28:51.333Z,51.30
2017-05-20T07:31:18.645Z,50.70
2017-05-20T07:33:45.880Z,51.10
2017-05-20T07:36:13.229Z,50.90
2017-05-20T07:38:40.580Z,47.50
2017-05-20T07:41:07.821Z,49.00
2017-05-20T07:43:35.169Z,50.60
2017-05-20T07:46:02.577Z,50.20
2017-05-20T07:48:29.906Z,50.10
2017-05-20T07:50:57.236Z,47.60
2017-05-20T07:53:24.508Z,48.40
2017-05-20T07:55:51.817Z,48.10
2017-05-20T07:58:19.132Z,46.80
2017-05-20T08:00:46.456Z,48.40
2017-05-20T08:03:13.792Z,47.10
2017-05-20T08:05:41.098Z,47.10
2017-05-20T08:08:08.425Z,47.50
2017-05-20T08:10:35.776Z,44.80
2017-05-20T08:13:03.109Z,41.00
2017-05-20T08:15:30.453Z,41.20
2017-05-20T08:17:57.774Z,39.20
2017-05-20T08:20:25.297Z,35.90
2017-05-20T08:22:52.590Z,34.80
2017-05-20T08:25:19.913Z,33.00
2017-05-20T08:27:47.334Z,32.00
2017-05-20T08:30:14.665Z,31.40
2017-05-20T08:32:42.021Z,31.80
2017-05-20T08:35:09.489Z,31.40
2017-05-20T08:37:36.832Z,30.60
2017-05-20T08:40:04.319Z,29.60
2017-05-20T08:42:31.796Z,29.60
2017-05-20T08:44:59.075Z,28.10
2017-05-20T08:47:26.384Z,28.50
2017-05-20T08:49:53.717Z,30.80
2017-05-20T08:52:21.159Z,32.30
2017-05-20T08:54:48.529Z,33.30
2017-05-20T08:57:16.050Z,36.40
2017-05-20T08:59:43.389Z,37.30
2017-05-20T09:04:53.759Z,41.50
2017-05-20T09:07:20.842Z,41.30
2017-05-20T09:09:47.957Z,43.10
2017-05-20T09:12:15.028Z,39.90
2017-05-20T09:14:50.454Z,38.00
2017-05-20T09:17:20.094Z,40.80
2017-05-20T09:19:47.175Z,37.80
2017-05-20T09:22:14.250Z,38.70
2017-05-20T09:24:41.325Z,40.90
2017-05-20T09:27:08.443Z,39.50
2017-05-20T09:29:35.521Z,41.80
2017-05-20T09:32:02.600Z,42.00
2017-05-20T09:34:29.681Z,42.20
2017-05-20T09:36:56.761Z,42.40
2017-05-20T09:39:23.842Z,42.30
2017-05-20T09:41:50.926Z,42.30
2017-05-20T09:44:18.005Z,42.80
2017-05-20T09:46:45.112Z,41.20
2017-05-20T09:49:12.201Z,41.50
2017-05-20T09:51:39.278Z,41.70
2017-05-20T09:54:06.345Z,43.60
2017-05-20T09:56:33.443Z,40.30
2017-05-20T09:59:00.556Z,41.00
2017-05-20T10:01:27.742Z,40.20
2017-05-20T10:03:54.867Z,41.50
2017-05-20T10:06:21.932Z,40.00
2017-05-20T10:08:49.005Z,40.00
2017-05-20T10:11:16.075Z,41.60
2017-05-20T10:13:43.174Z,42.60
2017-05-20T10:16:10.307Z,42.80
2017-05-20T10:18:37.391Z,44.60
2017-05-20T10:21:04.569Z,42.80
2017-05-20T10:23:31.842Z,39.90
2017-05-20T10:25:58.949Z,43.60
2017-05-20T10:28:26.265Z,37.90
2017-05-20T10:31:08.397Z,41.20
2017-05-20T10:33:35.519Z,37.50
2017-05-20T10:36:02.641Z,36.30
2017-05-20T10:38:29.721Z,38.40
2017-05-20T10:40:56.838Z,39.40
2017-05-20T10:43:23.975Z,38.40
2017-05-20T10:45:51.071Z,39.60
2017-05-20T10:48:18.137Z,37.50
2017-05-20T10:50:45.253Z,37.20
2017-05-20T10:53:12.318Z,38.60
2017-05-20T10:55:39.418Z,37.50
2017-05-20T10:58:06.542Z,37.50
2017-05-20T11:00:33.609Z,37.50
2017-05-20T11:03:00.697Z,37.60
2017-05-20T11:05:27.792Z,38.10
2017-05-20T11:07:54.873Z,37.70
2017-05-20T11:10:21.954Z,39.70
2017-05-20T11:12:49.159Z,37.80
2017-05-20T11:15:16.265Z,39.50
2017-05-20T11:17:43.346Z,40.60
2017-05-20T11:20:11.273Z,37.10
2017-05-20T11:22:38.440Z,36.40
2017-05-20T11:25:05.513Z,39.20
2017-05-20T11:27:32.677Z,38.70
2017-05-20T11:29:59.758Z,37.60
2017-05-20T11:32:26.812Z,37.80
2017-05-20T11:34:53.893Z,35.90
2017-05-20T11:37:20.430Z,35.80
2017-05-20T11:39:47.501Z,35.60
2017-05-20T11:42:14.569Z,37.90
2017-05-20T11:44:41.690Z,38.00
2017-05-20T11:47:08.788Z,36.80
2017-05-20T11:49:37.839Z,36.60
2017-05-20T11:52:04.917Z,37.40
2017-05-20T11:54:32.000Z,36.10
2017-05-20T11:56:59.097Z,37.10
2017-05-20T11:59:26.174Z,37.70
2017-05-20T12:01:53.256Z,36.20
2017-05-20T12:04:20.314Z,34.00
2017-05-20T12:06:47.422Z,35.30
2017-05-20T12:09:21.370Z,33.40
2017-05-20T12:11:48.424Z,34.00
2017-05-20T12:14:15.488Z,35.90
2017-05-20T12:16:42.586Z,35.20
2017-05-20T12:19:09.670Z,35.30
2017-05-20T12:21:36.732Z,37.00
2017-05-20T12:24:03.794Z,34.20
2017-05-20T12:26:30.864Z,34.30
2017-05-20T12:28:57.924Z,35.00
2017-05-20T12:31:24.985Z,37.00
2017-05-20T12:33:52.048Z,38.50
2017-05-20T12:36:19.441Z,38.80
2017-05-20T12:38:46.552Z,37.20
2017-05-20T12:41:13.629Z,37.10
2017-05-20T12:43:40.701Z,38.20
2017-05-20T12:46:07.789Z,35.10
2017-05-20T12:48:34.973Z,35.30
2017-05-20T12:51:02.057Z,35.90
2017-05-20T12:53:29.136Z,35.10
2017-05-20T12:55:56.192Z,36.30
2017-05-20T12:58:23.280Z,35.80
2017-05-20T13:00:50.353Z,36.70
2017-05-20T13:03:17.449Z,36.40
2017-05-20T13:05:44.563Z,37.70
2017-05-20T13:08:11.692Z,38.90
2017-05-20T13:10:38.755Z,34.20
2017-05-20T13:13:05.849Z,34.30
2017-05-20T13:15:32.921Z,34.20
2017-05-20T13:18:00.056Z,33.50
2017-05-20T13:20:27.127Z,35.20
2017-05-20T13:22:54.192Z,36.50
2017-05-20T13:25:21.265Z,35.60
2017-05-20T13:27:48.346Z,36.50
2017-05-20T13:30:15.423Z,36.80
2017-05-20T13:32:42.528Z,37.20
2017-05-20T13:35:09.585Z,34.20
2017-05-20T13:37:36.664Z,35.80
2017-05-20T13:40:03.749Z,35.30
2017-05-20T13:42:30.816Z,38.30
2017-05-20T13:44:57.877Z,35.50
2017-05-20T13:47:24.943Z,35.40
2017-05-20T13:49:52.022Z,34.10
2017-05-20T13:52:18.364Z,34.20
2017-05-20T13:54:45.502Z,35.00
2017-05-20T13:57:12.628Z,36.00
2017-05-20T13:59:39.768Z,35.10
2017-05-20T14:02:06.837Z,34.30
2017-05-20T14:04:33.901Z,33.70
2017-05-20T14:07:00.961Z,34.10
2017-05-20T14:09:28.029Z,34.90
2017-05-20T14:11:55.240Z,34.80
2017-05-20T14:14:22.324Z,34.60
2017-05-20T14:16:49.453Z,34.00
2017-05-20T14:19:15.785Z,33.80
2017-05-20T14:21:43.352Z,35.30
2017-05-20T14:24:10.704Z,35.10
2017-05-20T14:26:37.988Z,35.10
2017-05-20T14:29:05.341Z,35.30
2017-05-20T14:31:32.656Z,33.40
2017-05-20T14:33:59.980Z,34.30
2017-05-20T14:36:27.358Z,34.80
2017-05-20T14:38:54.560Z,35.70
2017-05-20T14:41:22.206Z,34.20
2017-05-20T14:43:49.521Z,34.00
2017-05-20T14:46:16.735Z,34.30
2017-05-20T14:48:44.147Z,33.20
2017-05-20T14:51:11.545Z,34.80
2017-05-20T14:53:38.873Z,33.20
2017-05-20T14:56:05.686Z,33.00
2017-05-20T14:58:33.082Z,34.70
2017-05-20T15:01:00.410Z,33.50
2017-05-20T15:03:27.744Z,33.10
2017-05-20T15:05:55.557Z,33.60
2017-05-20T15:08:22.893Z,33.80
2017-05-20T15:10:50.197Z,33.90
2017-05-20T15:13:17.539Z,32.60
2017-05-20T15:15:44.905Z,33.60
2017-05-20T15:18:12.552Z,34.00
2017-05-20T15:20:39.840Z,34.70
2017-05-20T15:23:07.171Z,34.60
2017-05-20T15:25:34.604Z,33.20
2017-05-20T15:28:01.937Z,34.70
2017-05-20T15:30:29.289Z,33.50
2017-05-20T15:32:56.593Z,33.50
2017-05-20T15:35:23.905Z,34.50
2017-05-20T15:37:51.229Z,33.20
2017-05-20T15:40:18.561Z,34.40
2017-05-20T15:42:45.899Z,35.30
2017-05-20T15:45:13.356Z,34.00
2017-05-20T15:47:40.820Z,35.50
2017-05-20T15:50:08.165Z,34.30
2017-05-20T15:52:35.649Z,35.50
2017-05-20T15:55:02.972Z,32.40
2017-05-20T15:57:30.445Z,33.60
2017-05-20T15:59:57.757Z,34.10
2017-05-20T16:02:25.167Z,33.00
2017-05-20T16:04:52.723Z,31.50
2017-05-20T16:07:20.151Z,33.80
2017-05-20T16:09:47.483Z,31.00
2017-05-20T16:12:14.695Z,31.90
2017-05-20T16:14:42.041Z,33.10
2017-05-20T16:17:09.366Z,33.70
2017-05-20T16:19:36.796Z,34.10
2017-05-20T16:22:04.137Z,33.20
2017-05-20T16:24:31.485Z,32.40
2017-05-20T16:26:58.836Z,33.90
2017-05-20T16:29:26.205Z,33.30
2017-05-20T16:31:53.533Z,32.90
2017-05-20T16:34:20.754Z,33.50
2017-05-20T16:36:48.156Z,33.80
2017-05-20T16:39:15.489Z,34.10
2017-05-20T16:41:42.819Z,34.10
2017-05-20T16:44:10.143Z,33.20
2017-05-20T16:46:37.477Z,32.90
2017-05-20T16:49:04.809Z,33.20
2017-05-20T16:51:32.278Z,33.70
2017-05-20T16:53:59.833Z,34.00
2017-05-20T16:56:26.301Z,34.00
2017-05-20T16:58:52.779Z,33.70
2017-05-20T17:01:23.733Z,32.90
2017-05-20T17:03:51.106Z,33.70
2017-05-20T17:06:18.230Z,33.50
2017-05-20T17:08:45.493Z,32.40
2017-05-20T17:11:12.014Z,32.40
2017-05-20T17:13:39.775Z,33.40
2017-05-20T17:16:07.001Z,33.10
2017-05-20T17:18:34.370Z,33.40
2017-05-20T17:21:01.457Z,35.00
2017-05-20T17:23:28.788Z,34.10
2017-05-20T17:25:56.276Z,34.20
2017-05-20T17:28:24.656Z,34.40
2017-05-20T17:30:51.847Z,34.10
2017-05-20T17:33:19.609Z,33.80
2017-05-20T17:35:46.781Z,35.90
2017-05-20T17:38:13.906Z,35.70
2017-05-20T17:40:47.128Z,35.70
2017-05-20T17:43:14.249Z,36.30
2017-05-20T17:45:45.749Z,35.30
2017-05-20T17:48:12.850Z,36.10
2017-05-20T17:50:39.976Z,34.20
2017-05-20T17:53:07.064Z,35.10
2017-05-20T17:55:34.144Z,35.10
2017-05-20T17:58:00.572Z,35.00
2017-05-20T18:00:27.642Z,35.40
2017-05-20T18:02:54.697Z,35.50
2017-05-20T18:05:24.846Z,35.10
2017-05-20T18:07:51.939Z,37.10
2017-05-20T18:10:18.272Z,37.20
2017-05-20T18:12:45.345Z,35.60
2017-05-20T18:15:12.796Z,35.80
2017-05-20T18:17:40.886Z,37.40
2017-05-20T18:20:07.975Z,38.00
2017-05-20T18:22:35.049Z,37.40
2017-05-20T18:25:02.152Z,38.90
2017-05-20T18:27:29.584Z,38.50
2017-05-20T18:29:56.008Z,38.60
2017-05-20T18:32:23.097Z,37.70
2017-05-20T18:34:54.364Z,37.20
2017-05-20T18:37:21.545Z,37.20
2017-05-20T18:39:48.629Z,37.30
2017-05-20T18:42:15.715Z,37.10
2017-05-20T18:44:43.069Z,37.00
2017-05-20T18:47:10.131Z,37.10
2017-05-20T18:49:37.268Z,37.00
2017-05-20T18:52:03.627Z,36.90
2017-05-20T18:54:36.666Z,37.60
2017-05-20T18:57:03.742Z,38.60
2017-05-20T18:59:30.885Z,38.30
2017-05-20T19:02:02.097Z,37.70
2017-05-20T19:04:29.193Z,39.00
2017-05-20T19:06:56.375Z,39.90
2017-05-20T19:09:23.598Z,40.80
2017-05-20T19:11:50.657Z,40.50
2017-05-20T19:14:19.810Z,40.80
2017-05-20T19:16:46.907Z,41.60
2017-05-20T19:19:13.976Z,40.00
2017-05-20T19:21:41.028Z,41.10
2017-05-20T19:24:08.785Z,41.80
2017-05-20T19:26:35.870Z,43.10
2017-05-20T19:29:03.680Z,42.40
2017-05-20T19:31:30.774Z,42.80
2017-05-20T19:33:57.905Z,43.00
2017-05-20T19:36:29.198Z,43.70
2017-05-20T19:38:56.472Z,43.80
2017-05-20T19:41:23.648Z,44.70
2017-05-20T19:43:50.708Z,44.80
2017-05-20T19:46:17.879Z,45.00
2017-05-20T19:48:45.045Z,45.30
2017-05-20T19:51:12.157Z,44.80
2017-05-20T19:53:39.233Z,43.90
2017-05-20T19:56:08.120Z,43.90
2017-05-20T19:58:35.186Z,46.00
2017-05-20T20:01:02.258Z,46.20
2017-05-20T20:03:29.462Z,46.30
2017-05-20T20:05:56.667Z,46.90
2017-05-20T20:08:27.569Z,46.80
2017-05-20T20:10:54.644Z,46.80
2017-05-20T20:13:20.996Z,46.70
2017-05-20T20:15:48.064Z,46.80
2017-05-20T20:18:15.149Z,46.70
2017-05-20T20:23:14.892Z,47.40
2017-05-20T20:25:41.987Z,48.50
2017-05-20T20:28:09.057Z,48.50
2017-05-20T20:30:36.141Z,47.90
2017-05-20T20:33:03.249Z,48.20
2017-05-20T20:35:32.444Z,48.50
2017-05-20T20:37:59.604Z,48.30
2017-05-20T20:40:26.665Z,49.10
2017-05-20T20:42:53.773Z,48.90
2017-05-20T20:45:20.872Z,48.60
2017-05-20T20:47:47.947Z,48.80
2017-05-20T20:50:15.877Z,49.30
2017-05-20T20:52:43.046Z,48.60
2017-05-20T20:55:10.129Z,49.90
2017-05-20T20:57:37.212Z,49.90
2017-05-20T21:00:04.288Z,49.40
2017-05-20T21:02:31.366Z,49.20
2017-05-20T21:04:59.806Z,49.10
2017-05-20T21:07:26.934Z,49.10
2017-05-20T21:09:53.992Z,49.30
2017-05-20T21:12:21.076Z,49.40
2017-05-20T21:14:48.157Z,50.00
2017-05-20T21:17:15.314Z,50.00
2017-05-20T21:19:42.384Z,49.90
2017-05-20T21:22:10.396Z,49.10
2017-05-20T21:24:37.473Z,49.40
2017-05-20T21:27:04.137Z,49.30
2017-05-20T21:29:31.288Z,49.80
2017-05-20T21:31:58.404Z,49.70
2017-05-20T21:34:25.541Z,50.00
2017-05-20T21:39:24.833Z,49.80
2017-05-20T21:41:51.913Z,51.10
2017-05-20T21:44:18.979Z,50.80
2017-05-20T21:46:46.072Z,50.50
2017-05-20T21:49:13.212Z,50.30
2017-05-20T21:51:40.304Z,50.00
2017-05-20T21:54:12.836Z,50.10
2017-05-20T21:56:39.957Z,50.50
2017-05-20T21:59:07.036Z,50.40
2017-05-20T22:01:34.107Z,50.70
2017-05-20T22:04:01.198Z,50.80
2017-05-20T22:06:28.281Z,50.50
2017-05-20T22:08:55.365Z,50.80
2017-05-20T22:11:22.460Z,51.60
2017-05-20T22:13:49.589Z,51.00
2017-05-20T22:16:16.664Z,50.70
2017-05-20T22:18:43.737Z,50.80
2017-05-20T22:21:10.814Z,51.40
2017-05-20T22:23:37.905Z,51.20
2017-05-20T22:26:05.042Z,52.00
2017-05-20T22:28:32.134Z,51.50
2017-05-20T22:30:59.261Z,51.90
2017-05-20T22:33:26.365Z,52.00
2017-05-20T22:35:53.468Z,51.80
2017-05-20T22:38:20.525Z,52.80
2017-05-20T22:40:47.646Z,51.60
2017-05-20T22:43:14.705Z,51.70
2017-05-20T22:45:41.768Z,52.50
2017-05-20T22:48:08.865Z,52.80
2017-05-20T22:50:35.325Z,52.80
2017-05-20T22:53:02.438Z,53.00
2017-05-20T22:55:29.509Z,51.70
2017-05-20T22:57:56.577Z,52.30
2017-05-20T23:00:23.762Z,52.00
2017-05-20T23:02:50.892Z,52.70
2017-05-20T23:05:17.976Z,52.60
2017-05-20T23:07:45.091Z,52.90
2017-05-20T23:10:12.190Z,52.60
2017-05-20T23:12:39.307Z,53.10
2017-05-20T23:15:06.992Z,53.00
2017-05-20T23:17:34.061Z,53.20
2017-05-20T23:20:01.137Z,53.20
2017-05-20T23:22:28.329Z,52.30
2017-05-20T23:24:55.524Z,52.30
2017-05-20T23:27:22.601Z,52.20
2017-05-20T23:29:49.663Z,52.50
2017-05-20T23:32:16.726Z,53.00
2017-05-20T23:34:43.828Z,53.40
2017-05-20T23:37:10.913Z,53.70
2017-05-20T23:39:37.961Z,53.30
2017-05-20T23:42:05.127Z,53.90
2017-05-20T23:44:32.244Z,53.80
2017-05-20T23:46:59.367Z,53.50
2017-05-20T23:49:25.681Z,53.40
2017-05-20T23:51:52.872Z,53.20
2017-05-20T23:54:20.369Z,54.00
2017-05-20T23:56:47.454Z,54.50
2017-05-20T23:59:14.552Z,54.30
